createdAt,value
2022-11-04T00:01:10.079Z,30.33
2022-11-04T00:03:40.688Z,29.85
2022-11-04T00:06:11.456Z,29.48
2022-11-04T00:08:43.023Z,29.09
2022-11-04T00:11:34.727Z,29.00
2022-11-04T00:14:06.713Z,29.51
2022-11-04T00:16:55.848Z,29.57
2022-11-04T00:19:27.422Z,29.72
2022-11-04T00:22:15.961Z,29.44
2022-11-04T00:25:04.754Z,29.88
2022-11-04T00:27:54.319Z,30.10
2022-11-04T00:30:24.530Z,30.25
2022-11-04T00:33:13.382Z,28.36
2022-11-04T00:35:43.328Z,30.53
2022-11-04T00:38:13.487Z,28.73
2022-11-04T00:40:43.977Z,30.39
2022-11-04T00:43:16.337Z,30.17
2022-11-04T00:45:47.683Z,29.77
2022-11-04T00:48:18.056Z,29.28
2022-11-04T00:50:49.568Z,30.13
2022-11-04T00:53:20.684Z,29.17
2022-11-04T00:55:51.606Z,29.95
2022-11-04T00:58:23.394Z,29.85
2022-11-04T01:00:54.382Z,29.07
2022-11-04T01:03:24.674Z,29.84
2022-11-04T01:05:55.980Z,27.24
2022-11-04T01:08:26.636Z,27.26
2022-11-04T01:10:56.779Z,26.59
2022-11-04T01:13:28.427Z,26.55
2022-11-04T01:16:02.508Z,26.10
2022-11-04T01:18:33.972Z,26.89
2022-11-04T01:21:06.647Z,26.87
2022-11-04T01:23:37.652Z,27.32
2022-11-04T01:26:09.438Z,26.30
2022-11-04T01:28:41.323Z,25.18
2022-11-04T01:31:15.931Z,27.43
2022-11-04T01:33:47.594Z,27.19
2022-11-04T01:36:18.497Z,27.00
2022-11-04T01:38:49.008Z,27.79
2022-11-04T01:45:03.801Z,26.96
2022-11-04T01:47:45.170Z,25.33
2022-11-04T01:50:31.831Z,24.61
2022-11-04T01:53:29.578Z,26.46
2022-11-04T01:56:03.539Z,27.29
2022-11-04T01:58:37.573Z,24.49
2022-11-04T02:01:08.607Z,22.91
2022-11-04T02:04:20.075Z,24.92
2022-11-04T02:06:52.412Z,26.06
2022-11-04T02:09:25.432Z,24.36
2022-11-04T02:12:14.368Z,22.76
2022-11-04T02:14:46.590Z,22.69
2022-11-04T02:17:37.872Z,26.81
2022-11-04T02:20:25.499Z,26.70
2022-11-04T02:23:29.429Z,26.31
2022-11-04T02:26:11.666Z,25.09
2022-11-04T02:29:11.146Z,25.63
2022-11-04T02:32:02.165Z,25.12
2022-11-04T02:34:51.190Z,25.91
2022-11-04T02:37:31.130Z,21.94
2022-11-04T02:40:11.085Z,21.10
2022-11-04T02:42:57.067Z,22.94
2022-11-04T02:45:40.749Z,26.61
2022-11-04T02:48:43.421Z,24.77
2022-11-04T02:51:42.363Z,25.66
2022-11-04T02:54:44.791Z,21.97
2022-11-04T02:57:23.508Z,25.03
2022-11-04T03:00:03.003Z,25.78
2022-11-04T03:02:50.071Z,23.49
2022-11-04T03:05:28.496Z,23.09
2022-11-04T03:08:05.991Z,27.48
2022-11-04T03:10:43.477Z,26.63
2022-11-04T03:13:24.247Z,26.04
2022-11-04T03:16:03.030Z,20.86
2022-11-04T03:18:44.584Z,23.70
2022-11-04T03:21:19.637Z,24.72
2022-11-04T03:23:51.086Z,24.86
2022-11-04T03:26:53.279Z,25.96
2022-11-04T03:29:38.986Z,24.11
2022-11-04T03:32:23.150Z,26.28
2022-11-04T03:34:54.893Z,25.80
2022-11-04T03:37:25.113Z,23.85
2022-11-04T03:39:56.643Z,25.42
2022-11-04T03:42:28.682Z,26.86
2022-11-04T03:45:00.859Z,20.08
2022-11-04T03:47:32.949Z,20.75
2022-11-04T03:50:22.966Z,21.51
2022-11-04T03:52:53.319Z,20.22
2022-11-04T03:55:26.567Z,19.78
2022-11-04T03:58:09.985Z,22.30
2022-11-04T04:00:54.093Z,22.88
2022-11-04T04:03:32.263Z,21.70
2022-11-04T04:06:14.502Z,22.73
2022-11-04T04:09:02.968Z,21.46
2022-11-04T04:11:46.286Z,22.24
2022-11-04T04:14:44.191Z,21.24
2022-11-04T04:17:48.299Z,21.52
2022-11-04T04:20:22.542Z,20.56
2022-11-04T04:23:26.135Z,21.04
2022-11-04T04:26:17.227Z,21.47
2022-11-04T04:28:49.243Z,21.03
2022-11-04T04:31:40.192Z,21.54
2022-11-04T04:34:10.906Z,21.34
2022-11-04T04:36:55.131Z,19.63
2022-11-04T04:39:49.452Z,21.34
2022-11-04T04:42:37.965Z,25.47
2022-11-04T04:45:12.091Z,24.46
2022-11-04T04:47:47.440Z,22.33
2022-11-04T04:50:21.383Z,19.85
2022-11-04T04:52:54.255Z,19.61
2022-11-04T04:55:25.804Z,23.44
2022-11-04T04:57:56.272Z,19.77
2022-11-04T05:00:28.106Z,21.40
2022-11-04T05:02:58.519Z,24.57
2022-11-04T05:05:28.591Z,21.48
2022-11-04T05:08:05.792Z,20.18
2022-11-04T05:10:37.524Z,26.07
2022-11-04T05:13:25.880Z,22.78
2022-11-04T05:15:56.701Z,20.48
2022-11-04T05:18:27.910Z,19.97
2022-11-04T05:20:59.459Z,20.30
2022-11-04T05:23:31.134Z,20.71
2022-11-04T05:26:02.686Z,21.58
2022-11-04T05:28:34.544Z,20.69
2022-11-04T05:31:08.196Z,19.74
2022-11-04T05:33:39.151Z,18.84
2022-11-04T05:36:17.286Z,19.08
2022-11-04T05:38:54.125Z,21.54
2022-11-04T05:41:29.435Z,22.59
2022-11-04T05:44:06.336Z,22.82
2022-11-04T05:46:37.457Z,25.49
2022-11-04T05:49:09.291Z,25.77
2022-11-04T05:51:40.171Z,20.18
2022-11-04T05:54:12.429Z,19.82
2022-11-04T05:56:43.431Z,23.53
2022-11-04T05:59:15.003Z,21.04
2022-11-04T06:01:46.496Z,22.53
2022-11-04T06:04:21.287Z,18.71
2022-11-04T06:06:53.342Z,21.97
2022-11-04T06:09:42.270Z,19.58
2022-11-04T06:12:22.736Z,19.48
2022-11-04T06:18:08.255Z,21.89
2022-11-04T06:24:40.384Z,18.59
2022-11-04T06:27:11.946Z,22.08
2022-11-04T06:29:44.912Z,23.20
2022-11-04T06:32:21.623Z,23.04
2022-11-04T06:34:51.487Z,23.93
2022-11-04T06:37:25.476Z,18.53
2022-11-04T06:39:55.725Z,23.57
2022-11-04T06:42:28.245Z,18.86
2022-11-04T06:44:59.120Z,19.69
2022-11-04T06:47:29.268Z,20.62
2022-11-04T06:49:59.658Z,20.36
2022-11-04T06:52:29.767Z,19.63
2022-11-04T06:55:00.169Z,19.25
2022-11-04T06:57:31.590Z,19.94
2022-11-04T07:00:03.090Z,19.21
2022-11-04T07:02:33.845Z,24.02
2022-11-04T07:05:05.171Z,20.41
2022-11-04T07:07:36.449Z,22.21
2022-11-04T07:10:07.592Z,19.25
2022-11-04T07:12:42.694Z,21.96
2022-11-04T07:15:15.131Z,18.29
2022-11-04T07:17:46.387Z,20.63
2022-11-04T07:20:18.158Z,20.42
2022-11-04T07:22:49.006Z,22.51
2022-11-04T07:25:19.321Z,18.07
2022-11-04T07:27:50.575Z,20.88
2022-11-04T07:30:21.904Z,22.73
2022-11-04T07:32:52.182Z,22.80
2022-11-04T07:35:23.880Z,22.12
2022-11-04T07:37:54.524Z,20.05
2022-11-04T07:40:24.776Z,20.02
2022-11-04T07:42:55.238Z,21.67
2022-11-04T07:45:39.004Z,18.98
2022-11-04T07:48:11.354Z,17.65
2022-11-04T07:50:44.541Z,22.90
2022-11-04T07:53:14.687Z,17.69
2022-11-04T07:55:51.714Z,18.82
2022-11-04T07:58:28.377Z,18.54
2022-11-04T08:01:03.946Z,20.75
2022-11-04T08:03:35.934Z,20.07
2022-11-04T08:06:08.394Z,22.61
2022-11-04T08:08:39.136Z,22.18
2022-11-04T08:11:19.809Z,19.57
2022-11-04T08:13:51.517Z,19.59
2022-11-04T08:16:27.610Z,20.86
2022-11-04T08:19:03.889Z,23.31
2022-11-04T08:21:35.265Z,22.93
2022-11-04T08:24:08.418Z,22.00
2022-11-04T08:26:40.597Z,23.96
2022-11-04T08:29:12.446Z,23.67
2022-11-04T08:31:44.682Z,24.33
2022-11-04T08:34:17.009Z,23.90
2022-11-04T08:36:48.025Z,24.41
2022-11-04T08:39:19.940Z,24.48
2022-11-04T08:41:52.316Z,25.14
2022-11-04T08:44:26.815Z,24.28
2022-11-04T08:46:57.819Z,23.29
2022-11-04T08:49:29.099Z,24.09
2022-11-04T08:52:02.000Z,25.19
2022-11-04T08:54:32.605Z,24.71
2022-11-04T08:57:03.619Z,24.92
2022-11-04T08:59:34.690Z,23.66
2022-11-04T09:02:06.933Z,25.22
2022-11-04T09:04:37.573Z,24.84
2022-11-04T09:07:08.477Z,25.09
2022-11-04T09:09:40.969Z,25.05
2022-11-04T09:12:14.515Z,25.31
2022-11-04T09:14:46.093Z,24.96
2022-11-04T09:17:16.646Z,25.23
2022-11-04T09:19:47.894Z,25.48
2022-11-04T09:22:19.497Z,25.58
2022-11-04T09:24:50.210Z,26.27
2022-11-04T09:27:20.854Z,25.85
2022-11-04T09:29:51.334Z,26.08
2022-11-04T09:32:26.170Z,25.66
2022-11-04T09:34:59.766Z,26.18
2022-11-04T09:37:31.160Z,26.55
2022-11-04T09:40:02.917Z,26.16
2022-11-04T09:42:40.507Z,25.72
2022-11-04T09:45:22.150Z,25.64
2022-11-04T09:47:57.448Z,26.13
2022-11-04T09:50:32.256Z,26.55
2022-11-04T09:53:17.631Z,26.49
2022-11-04T09:56:02.946Z,26.23
2022-11-04T09:58:41.715Z,26.16
2022-11-04T10:01:20.824Z,27.14
2022-11-04T10:04:10.526Z,26.67
2022-11-04T10:07:13.427Z,26.71
2022-11-04T10:09:57.176Z,27.13
2022-11-04T10:13:04.810Z,27.39
2022-11-04T10:15:37.580Z,27.18
2022-11-04T10:18:24.226Z,27.78
2022-11-04T10:21:00.285Z,28.18
2022-11-04T10:23:45.572Z,27.91
2022-11-04T10:26:26.983Z,28.17
2022-11-04T10:29:26.343Z,28.20
2022-11-04T10:32:01.075Z,28.83
2022-11-04T10:35:04.631Z,28.37
2022-11-04T10:42:09.779Z,29.50
2022-11-04T10:44:46.054Z,29.94
2022-11-04T10:47:32.867Z,29.62
2022-11-04T10:50:31.742Z,30.42
2022-11-04T10:53:51.132Z,30.12
2022-11-04T11:04:32.550Z,30.17
2022-11-04T11:07:14.014Z,30.48
2022-11-04T12:11:43.291Z,31.67
2022-11-04T12:14:51.789Z,31.23
2022-11-04T12:17:59.282Z,31.19
2022-11-04T12:30:38.474Z,31.24
2022-11-04T12:33:17.931Z,31.13
2022-11-04T12:36:05.183Z,32.11
2022-11-04T12:39:02.138Z,31.79
2022-11-04T12:42:20.621Z,32.28
2022-11-04T12:45:21.423Z,32.35
2022-11-04T12:47:52.593Z,31.46
2022-11-04T12:51:00.639Z,32.11
2022-11-04T12:53:34.667Z,31.28
2022-11-04T12:56:17.401Z,31.25
2022-11-04T12:59:17.599Z,31.54
2022-11-04T13:02:07.664Z,32.17
2022-11-04T13:05:27.249Z,31.60
2022-11-04T13:08:27.386Z,31.53
2022-11-04T13:11:48.186Z,32.30
2022-11-04T13:14:33.732Z,31.68
2022-11-04T13:17:10.402Z,32.28
2022-11-04T13:19:59.004Z,31.94
2022-11-04T13:22:58.993Z,32.18
2022-11-04T13:25:53.713Z,32.87
2022-11-04T13:28:30.050Z,32.81
2022-11-04T13:31:41.036Z,33.33
2022-11-04T13:34:36.321Z,33.31
2022-11-04T13:37:31.988Z,33.34
2022-11-04T13:40:15.319Z,33.30
2022-11-04T13:43:25.471Z,32.95
2022-11-04T13:45:59.540Z,34.38
2022-11-04T13:48:34.466Z,33.53
2022-11-04T13:51:16.338Z,33.77
2022-11-04T13:53:50.484Z,32.91
2022-11-04T13:56:39.409Z,32.96
2022-11-04T13:59:28.481Z,33.20
2022-11-04T14:02:15.519Z,33.87
2022-11-04T14:04:48.001Z,34.49
2022-11-04T14:07:21.501Z,34.48
2022-11-04T14:09:55.631Z,34.58
2022-11-04T14:12:33.677Z,34.48
2022-11-04T14:15:16.197Z,33.55
2022-11-04T14:17:47.679Z,33.83
2022-11-04T14:20:35.871Z,33.47
2022-11-04T14:23:10.467Z,32.65
2022-11-04T14:25:47.199Z,32.64
2022-11-04T14:28:17.592Z,32.00
2022-11-04T14:30:56.969Z,31.57
2022-11-04T14:33:58.864Z,31.38
2022-11-04T14:36:41.582Z,31.97
2022-11-04T14:39:16.319Z,31.72
2022-11-04T14:42:06.342Z,32.03
2022-11-04T14:44:51.570Z,32.48
2022-11-04T14:47:31.627Z,31.95
2022-11-04T14:50:04.973Z,32.11
2022-11-04T14:52:53.093Z,32.79
2022-11-04T14:55:32.374Z,32.57
2022-11-04T14:58:28.136Z,32.71
2022-11-04T15:01:04.566Z,32.16
2022-11-04T15:06:53.250Z,33.51
2022-11-04T15:09:29.086Z,33.70
2022-11-04T15:12:31.587Z,33.20
2022-11-04T15:15:05.306Z,33.34
2022-11-04T15:17:36.355Z,35.01
2022-11-04T15:20:08.975Z,34.01
2022-11-04T15:22:41.614Z,33.43
2022-11-04T15:25:16.117Z,34.04
2022-11-04T15:27:52.060Z,34.23
2022-11-04T15:30:33.314Z,34.13
2022-11-04T15:33:18.959Z,34.01
2022-11-04T15:35:50.995Z,34.67
2022-11-04T15:38:23.505Z,34.18
2022-11-04T15:40:55.100Z,34.38
2022-11-04T15:43:30.727Z,34.22
2022-11-04T15:46:03.201Z,34.93
2022-11-04T15:48:39.215Z,33.33
2022-11-04T15:51:24.288Z,34.69
2022-11-04T15:54:10.578Z,35.05
2022-11-04T15:56:54.502Z,35.25
2022-11-04T15:59:35.925Z,35.30
2022-11-04T16:02:09.919Z,34.59
2022-11-04T16:04:44.110Z,34.99
2022-11-04T16:07:19.454Z,35.13
2022-11-04T16:09:57.635Z,35.23
2022-11-04T16:12:39.368Z,34.77
2022-11-04T16:15:30.569Z,34.26
2022-11-04T16:18:03.039Z,34.93
2022-11-04T16:20:37.441Z,34.73
2022-11-04T16:23:09.535Z,35.21
2022-11-04T16:25:43.246Z,36.15
2022-11-04T16:28:25.743Z,36.42
2022-11-04T16:31:09.921Z,35.35
2022-11-04T16:33:41.795Z,36.46
2022-11-04T16:36:34.030Z,34.16
2022-11-04T16:39:11.350Z,34.75
2022-11-04T16:41:44.609Z,34.34
2022-11-04T16:44:24.014Z,35.28
2022-11-04T16:46:55.858Z,35.19
2022-11-04T16:49:28.579Z,34.86
2022-11-04T16:52:05.846Z,35.16
2022-11-04T16:54:37.647Z,34.29
2022-11-04T16:57:14.328Z,33.74
2022-11-04T16:59:46.137Z,34.00
2022-11-04T17:02:42.645Z,34.30
2022-11-04T17:05:15.186Z,34.27
2022-11-04T17:07:53.723Z,33.87
2022-11-04T17:10:38.110Z,34.07
2022-11-04T17:13:09.531Z,34.63
2022-11-04T17:15:40.619Z,34.40
2022-11-04T17:18:16.625Z,34.35
2022-11-04T17:20:53.776Z,34.97
2022-11-04T17:23:25.122Z,35.83
2022-11-04T17:25:55.492Z,35.53
2022-11-04T17:28:27.345Z,35.92
2022-11-04T17:30:57.723Z,35.09
2022-11-04T17:33:29.237Z,35.83
2022-11-04T17:36:04.876Z,36.78
2022-11-04T17:38:38.078Z,36.64
2022-11-04T17:41:27.115Z,36.71
2022-11-04T17:44:03.988Z,37.13
2022-11-04T17:46:40.322Z,36.81
2022-11-04T17:49:20.857Z,36.46
2022-11-04T17:51:57.075Z,36.42
2022-11-04T17:54:30.218Z,36.39
2022-11-04T17:57:01.427Z,36.34
2022-11-04T17:59:36.458Z,37.15
2022-11-04T18:02:07.430Z,37.72
2022-11-04T18:04:38.636Z,38.21
2022-11-04T18:07:08.812Z,38.31
2022-11-04T18:09:40.613Z,36.57
2022-11-04T18:12:30.682Z,36.83
2022-11-04T18:15:01.011Z,37.26
2022-11-04T18:17:31.053Z,38.65
2022-11-04T18:20:01.651Z,39.72
2022-11-04T18:22:33.030Z,38.56
2022-11-04T18:25:03.422Z,38.92
2022-11-04T18:27:33.255Z,37.00
2022-11-04T18:30:03.614Z,38.42
2022-11-04T18:32:36.304Z,37.77
2022-11-04T18:35:08.010Z,38.28
2022-11-04T18:37:39.684Z,38.48
2022-11-04T18:40:13.457Z,36.75
2022-11-04T18:42:45.874Z,36.50
2022-11-04T18:45:16.171Z,36.66
2022-11-04T18:47:49.519Z,36.45
2022-11-04T18:50:20.896Z,36.27
2022-11-04T18:52:55.508Z,36.23
2022-11-04T18:55:27.326Z,36.76
2022-11-04T18:57:57.827Z,37.96
2022-11-04T19:00:30.282Z,37.59
2022-11-04T19:03:01.984Z,38.08
2022-11-04T19:05:32.548Z,38.70
2022-11-04T19:08:04.503Z,38.69
2022-11-04T19:10:51.756Z,40.60
2022-11-04T19:13:31.745Z,38.67
2022-11-04T19:16:08.653Z,39.48
2022-11-04T19:18:40.240Z,38.08
2022-11-04T19:21:15.030Z,37.92
2022-11-04T19:23:46.575Z,39.36
2022-11-04T19:26:22.401Z,37.60
2022-11-04T19:28:53.099Z,38.23
2022-11-04T19:31:28.236Z,39.15
2022-11-04T19:34:03.329Z,39.25
2022-11-04T19:36:36.221Z,40.23
2022-11-04T19:39:08.565Z,39.76
2022-11-04T19:41:57.532Z,40.54
2022-11-04T19:44:30.321Z,39.73
2022-11-04T19:47:01.905Z,39.41
2022-11-04T19:49:32.784Z,38.97
2022-11-04T19:52:04.360Z,38.91
2022-11-04T19:54:35.735Z,38.62
2022-11-04T19:57:07.495Z,38.57
2022-11-04T19:59:39.299Z,40.26
2022-11-04T20:02:10.459Z,39.45
2022-11-04T20:04:41.860Z,39.85
2022-11-04T20:07:11.723Z,38.32
2022-11-04T20:09:42.360Z,38.39
2022-11-04T20:12:32.862Z,39.64
2022-11-04T20:15:03.151Z,38.73
2022-11-04T20:17:36.088Z,38.10
2022-11-04T20:20:08.447Z,37.68
2022-11-04T20:22:39.773Z,37.75
2022-11-04T20:25:10.339Z,37.12
2022-11-04T20:27:41.552Z,37.50
2022-11-04T20:30:13.227Z,37.90
2022-11-04T20:32:43.903Z,37.90
2022-11-04T20:35:15.768Z,38.71
2022-11-04T20:37:49.267Z,39.46
2022-11-04T20:40:19.757Z,39.88
2022-11-04T20:42:51.443Z,39.80
2022-11-04T20:45:23.724Z,39.71
2022-11-04T20:47:55.891Z,39.84
2022-11-04T20:50:27.055Z,40.38
2022-11-04T20:52:57.626Z,41.19
2022-11-04T20:55:31.012Z,41.91
2022-11-04T20:58:01.435Z,41.99
2022-11-04T21:00:33.400Z,41.93
2022-11-04T21:03:03.841Z,41.15
2022-11-04T21:05:36.166Z,39.85
2022-11-04T21:08:06.764Z,40.80
2022-11-04T21:10:39.823Z,39.90
2022-11-04T21:13:11.374Z,40.69
2022-11-04T21:15:42.205Z,40.63
2022-11-04T21:18:16.426Z,39.95
2022-11-04T21:20:48.315Z,40.15
2022-11-04T21:23:24.825Z,39.77
2022-11-04T21:26:01.411Z,39.57
2022-11-04T21:28:33.472Z,40.75
2022-11-04T21:31:07.874Z,40.90
2022-11-04T21:33:39.645Z,41.10
2022-11-04T21:36:15.093Z,40.83
2022-11-04T21:38:47.681Z,40.84
2022-11-04T21:41:26.988Z,42.34
2022-11-04T21:44:03.376Z,40.48
2022-11-04T21:46:36.252Z,42.32
2022-11-04T21:49:07.717Z,42.61
2022-11-04T21:51:39.876Z,43.22
2022-11-04T21:54:12.291Z,42.30
2022-11-04T21:56:44.595Z,42.49
2022-11-04T21:59:18.334Z,40.76
2022-11-04T22:01:50.033Z,41.54
2022-11-04T22:04:21.097Z,41.94
2022-11-04T22:06:52.634Z,43.01
2022-11-04T22:09:23.032Z,41.96
2022-11-04T22:11:54.252Z,41.83
2022-11-04T22:14:24.488Z,41.31
2022-11-04T22:16:55.002Z,41.48
2022-11-04T22:19:26.048Z,42.41
2022-11-04T22:21:58.125Z,41.85
2022-11-04T22:24:32.155Z,42.25
2022-11-04T22:27:02.202Z,41.52
2022-11-04T22:29:33.663Z,41.77
2022-11-04T22:32:04.859Z,41.80
2022-11-04T22:34:36.780Z,42.17
2022-11-04T22:37:07.501Z,41.65
2022-11-04T22:39:37.922Z,41.99
2022-11-04T22:42:09.625Z,41.36
2022-11-04T22:44:41.226Z,42.53
2022-11-04T22:47:11.787Z,42.21
2022-11-04T22:49:41.956Z,43.24
2022-11-04T22:52:13.518Z,42.43
2022-11-04T22:54:44.165Z,42.78
2022-11-04T22:57:14.821Z,42.55
2022-11-04T22:59:45.100Z,43.25
2022-11-04T23:02:15.960Z,42.58
2022-11-04T23:04:46.708Z,43.12
2022-11-04T23:07:16.867Z,42.67
2022-11-04T23:10:05.105Z,42.78
2022-11-04T23:12:53.577Z,43.09
2022-11-04T23:15:43.691Z,42.11
2022-11-04T23:18:31.553Z,40.67
2022-11-04T23:21:22.112Z,41.55
2022-11-04T23:24:10.983Z,40.18
2022-11-04T23:26:42.905Z,41.63
2022-11-04T23:29:32.063Z,42.89
2022-11-04T23:32:02.943Z,40.72
2022-11-04T23:34:52.522Z,40.94
2022-11-04T23:37:23.173Z,41.56
2022-11-04T23:39:53.481Z,40.72
2022-11-04T23:42:24.700Z,39.65
2022-11-04T23:45:15.438Z,40.25
2022-11-04T23:48:08.171Z,38.69
2022-11-04T23:50:57.255Z,39.59
2022-11-04T23:53:47.047Z,39.16
2022-11-04T23:56:36.125Z,39.46
2022-11-04T23:59:28.497Z,39.68
